Steptoe, Washington
Current Conditions -  °F | °C
As of 10:53 PM on Saturday 22 Nov 2014 (Local Time) from KPUW Reporting Station
Clear Clear  
Wind Chill: 26°   Ceiling: Unl
Heat Index: 36°   Visibility: 10mi
Dew Point: 32°   Wind: 18mph
Humidity: 86%   Direction: 250°WSW
Pressure: 30.01"   Gusts: 25mph
Location:  47.01°N, 117.36°W
Report Text: KPUW 230653Z AUTO 25016G22KT 10SM CLR 02/00 A3001 RMK AO2 SLP176 T00220000
Loading
Personal Weather Stations






























Interactive Weather Map New forecast layout! Learn more

10-Day Weather Forecast

Advertisements
Track Severe Weather on mobile